Time;durP1;ratioP1;P1;durP2;ratioP2;P2;SDS_P1;SDS_P2;PMS_P1;PMS_P2;Temp;Humidity;BMP_temperature;BMP_pressure;BME280_temperature;BME280_humidity;BME280_pressure;Samples;Min_cycle;Max_cycle;Signal;HPM_P1;HPM_P2
2022/12/16 00:00:10;;;;;;;1.77;1.67;;;;;;;;;;5037016;28;20457;-91
2022/12/16 00:02:37;;;;;;;1.95;1.85;;;;;;;;;;5036965;28;20053;-91
2022/12/16 00:05:04;;;;;;;4.00;3.80;;;;;;;;;;5036442;28;20103;-91
2022/12/16 00:07:30;;;;;;;3.80;3.47;;;;;;;;;;5036799;28;20049;-90
2022/12/16 00:09:57;;;;;;;2.08;1.98;;;;;;;;;;5036741;28;20461;-90
2022/12/16 00:12:24;;;;;;;4.25;3.75;;;;;;;;;;5036383;28;20049;-91
2022/12/16 00:14:51;;;;;;;3.63;3.47;;;;;;;;;;5036375;28;20046;-91
2022/12/16 00:17:18;;;;;;;2.97;2.78;;;;;;;;;;5036617;28;20056;-90
2022/12/16 00:19:44;;;;;;;2.13;2.03;;;;;;;;;;5036634;28;20100;-91
2022/12/16 00:22:11;;;;;;;4.57;4.28;;;;;;;;;;5036599;28;20052;-91
2022/12/16 00:24:37;;;;;;;3.85;2.80;;;;;;;;;;5036090;28;20399;-92
2022/12/16 00:27:04;;;;;;;3.53;3.22;;;;;;;;;;5036170;28;20521;-91
2022/12/16 00:29:32;;;;;;;2.58;2.05;;;;;;;;;;5036337;28;20045;-92
2022/12/16 00:31:58;;;;;;;4.00;3.72;;;;;;;;;;5036413;28;20049;-92
2022/12/16 00:34:25;;;;;;;4.13;2.40;;;;;;;;;;5036419;28;20057;-92
2022/12/16 00:36:51;;;;;;;2.42;2.22;;;;;;;;;;5036065;28;20383;-93
2022/12/16 00:39:18;;;;;;;4.50;4.20;;;;;;;;;;5035077;28;20053;-93
2022/12/16 00:41:46;;;;;;;2.83;2.70;;;;;;;;;;5036202;28;20049;-92
2022/12/16 00:44:13;;;;;;;4.97;4.53;;;;;;;;;;5035946;28;20124;-92
2022/12/16 00:46:41;;;;;;;3.47;2.55;;;;;;;;;;5036143;28;20052;-91
2022/12/16 00:49:07;;;;;;;7.75;5.40;;;;;;;;;;5036178;28;20076;-91
2022/12/16 00:51:34;;;;;;;3.10;2.97;;;;;;;;;;5035995;28;20057;-91
2022/12/16 00:54:00;;;;;;;3.97;3.70;;;;;;;;;;5035958;28;20194;-91
2022/12/16 00:56:27;;;;;;;3.92;3.63;;;;;;;;;;5045979;28;20106;-91
2022/12/16 00:58:53;;;;;;;4.82;4.53;;;;;;;;;;5048373;28;20045;-91
2022/12/16 01:01:20;;;;;;;5.07;4.78;;;;;;;;;;5035954;28;20108;-91
2022/12/16 01:03:48;;;;;;;3.33;3.05;;;;;;;;;;5033265;28;20103;-92
2022/12/16 01:06:16;;;;;;;4.70;4.40;;;;;;;;;;5015993;28;20514;-92
2022/12/16 01:08:47;;;;;;;4.07;3.75;;;;;;;;;;5015603;28;20466;-92
2022/12/16 01:11:13;;;;;;;3.63;3.33;;;;;;;;;;5015877;28;20054;-92
2022/12/16 01:13:40;;;;;;;5.15;4.25;;;;;;;;;;5015769;28;20046;-91
2022/12/16 01:16:07;;;;;;;3.58;3.35;;;;;;;;;;5015836;28;20391;-93
2022/12/16 01:18:33;;;;;;;3.88;3.58;;;;;;;;;;5015763;28;20100;-91
2022/12/16 01:21:03;;;;;;;2.92;2.72;;;;;;;;;;5015785;28;20061;-92
2022/12/16 01:23:30;;;;;;;2.20;2.10;;;;;;;;;;5015722;28;20049;-92
2022/12/16 01:25:58;;;;;;;3.35;3.15;;;;;;;;;;5015584;28;20050;-91
2022/12/16 01:28:24;;;;;;;3.10;2.75;;;;;;;;;;5015543;28;20065;-91
2022/12/16 01:30:55;;;;;;;3.35;3.13;;;;;;;;;;5015447;28;20045;-92
2022/12/16 01:33:22;;;;;;;4.35;3.58;;;;;;;;;;5015202;28;20134;-92
2022/12/16 01:35:49;;;;;;;4.60;4.30;;;;;;;;;;5015049;28;20057;-92
2022/12/16 01:38:17;;;;;;;2.47;2.38;;;;;;;;;;5014996;28;20054;-91
2022/12/16 01:40:43;;;;;;;6.78;4.20;;;;;;;;;;5015465;28;20220;-91
2022/12/16 01:43:10;;;;;;;4.00;3.65;;;;;;;;;;5015091;28;20050;-92
2022/12/16 01:45:37;;;;;;;3.42;3.20;;;;;;;;;;5015152;28;20049;-92
2022/12/16 01:48:07;;;;;;;3.33;3.17;;;;;;;;;;5015240;28;20497;-91
2022/12/16 01:50:34;;;;;;;3.83;3.53;;;;;;;;;;5014890;28;20053;-92
2022/12/16 01:53:03;;;;;;;3.97;2.25;;;;;;;;;;5015364;28;20042;-90
2022/12/16 01:55:32;;;;;;;5.60;5.10;;;;;;;;;;5015837;28;20125;-91
2022/12/16 01:58:01;;;;;;;3.45;3.22;;;;;;;;;;5015233;28;20065;-91
2022/12/16 02:00:27;;;;;;;3.22;3.05;;;;;;;;;;5016241;28;20084;-91
2022/12/16 02:02:55;;;;;;;5.75;3.13;;;;;;;;;;5025141;28;20314;-91
2022/12/16 02:05:22;;;;;;;8.10;6.25;;;;;;;;;;5036806;28;20050;-91
2022/12/16 02:07:52;;;;;;;2.90;2.70;;;;;;;;;;5036478;28;20461;-91
2022/12/16 02:10:21;;;;;;;4.05;3.75;;;;;;;;;;5034363;28;20060;-92
2022/12/16 02:12:55;;;;;;;5.70;5.25;;;;;;;;;;5034514;28;20072;-91
2022/12/16 02:15:26;;;;;;;4.82;4.45;;;;;;;;;;5034179;28;20560;-91
2022/12/16 02:17:55;;;;;;;2.55;2.42;;;;;;;;;;5034524;28;20053;-91
2022/12/16 02:20:35;;;;;;;3.15;2.85;;;;;;;;;;5034346;28;20050;-91
2022/12/16 02:23:16;;;;;;;4.75;4.55;;;;;;;;;;5034129;28;20060;-91
2022/12/16 02:25:58;;;;;;;2.63;2.45;;;;;;;;;;5033906;28;20046;-90
2022/12/16 02:28:34;;;;;;;4.57;4.32;;;;;;;;;;5032642;28;20072;-91
2022/12/16 02:31:09;;;;;;;2.22;2.13;;;;;;;;;;5033890;28;20529;-91
2022/12/16 02:33:46;;;;;;;2.05;1.92;;;;;;;;;;5033768;28;20049;-91
2022/12/16 02:36:17;;;;;;;3.78;3.58;;;;;;;;;;5034146;28;20057;-91
2022/12/16 02:38:48;;;;;;;2.63;2.53;;;;;;;;;;5033893;28;20127;-91
2022/12/16 02:41:14;;;;;;;;;;;;;;;;;;5034346;28;20091;-90
2022/12/16 02:43:48;;;;;;;4.05;3.78;;;;;;;;;;5033931;28;19921;-91
2022/12/16 02:46:16;;;;;;;3.42;3.17;;;;;;;;;;5033806;28;20412;-90
2022/12/16 02:48:43;;;;;;;3.20;3.05;;;;;;;;;;5033573;28;20479;-91
2022/12/16 02:51:10;;;;;;;4.35;4.05;;;;;;;;;;5033796;28;20167;-91
2022/12/16 02:53:39;;;;;;;3.67;3.40;;;;;;;;;;5033715;28;20054;-91
2022/12/16 02:56:09;;;;;;;3.70;3.53;;;;;;;;;;5033673;28;20076;-91
2022/12/16 02:58:38;;;;;;;2.75;2.42;;;;;;;;;;5033314;28;20050;-91
2022/12/16 03:01:08;;;;;;;5.32;5.13;;;;;;;;;;5033015;28;20137;-91
2022/12/16 03:03:40;;;;;;;2.70;2.50;;;;;;;;;;5033311;28;20045;-91
2022/12/16 03:06:07;;;;;;;4.55;4.30;;;;;;;;;;5033460;28;20045;-92
2022/12/16 03:08:35;;;;;;;3.33;3.20;;;;;;;;;;5033718;28;20057;-92
2022/12/16 03:11:03;;;;;;;3.63;3.42;;;;;;;;;;5033459;28;20049;-92
2022/12/16 03:13:31;;;;;;;4.50;4.20;;;;;;;;;;5033667;28;20104;-92
2022/12/16 03:16:00;;;;;;;3.55;3.28;;;;;;;;;;5033507;28;20049;-92
2022/12/16 03:18:26;;;;;;;2.95;2.67;;;;;;;;;;5033232;28;20049;-93
2022/12/16 03:20:57;;;;;;;4.55;4.32;;;;;;;;;;5033409;28;20056;-92
2022/12/16 03:23:25;;;;;;;4.43;4.13;;;;;;;;;;5033148;28;20103;-92
2022/12/16 03:25:54;;;;;;;2.35;2.15;;;;;;;;;;5033330;28;20046;-92
2022/12/16 03:28:28;;;;;;;5.45;5.15;;;;;;;;;;5033348;28;20049;-92
2022/12/16 03:30:58;;;;;;;3.83;3.53;;;;;;;;;;5032933;28;20053;-92
2022/12/16 03:33:27;;;;;;;2.78;2.65;;;;;;;;;;5033012;28;20460;-92
2022/12/16 03:35:59;;;;;;;3.30;3.20;;;;;;;;;;5033227;28;20100;-92
2022/12/16 03:38:27;;;;;;;3.92;3.58;;;;;;;;;;5032933;28;20057;-91
2022/12/16 03:40:53;;;;;;;3.50;3.30;;;;;;;;;;5033024;28;20095;-92
2022/12/16 03:43:20;;;;;;;3.78;3.55;;;;;;;;;;5033363;28;20537;-92
2022/12/16 03:45:51;;;;;;;2.83;2.65;;;;;;;;;;5033254;28;20053;-92
2022/12/16 03:48:22;;;;;;;5.15;4.75;;;;;;;;;;5033100;28;20057;-92
2022/12/16 03:50:49;;;;;;;2.95;2.75;;;;;;;;;;5032904;28;20052;-90
2022/12/16 03:53:17;;;;;;;3.65;3.35;;;;;;;;;;5033136;28;20057;-90
2022/12/16 03:55:44;;;;;;;4.50;4.22;;;;;;;;;;5032721;28;20068;-90
2022/12/16 03:58:10;;;;;;;2.20;2.00;;;;;;;;;;5033078;28;20050;-90
2022/12/16 04:00:36;;;;;;;2.60;2.47;;;;;;;;;;5033512;28;20457;-91
2022/12/16 04:03:03;;;;;;;3.05;2.85;;;;;;;;;;5033796;28;20091;-91
2022/12/16 04:05:30;;;;;;;4.80;4.50;;;;;;;;;;5033784;28;20053;-91
2022/12/16 04:07:56;;;;;;;2.97;2.80;;;;;;;;;;5032924;28;20045;-91
2022/12/16 04:29:30;;;;;;;2.15;1.85;;;;;;;;;;5036432;28;20055;-92
2022/12/16 04:31:57;;;;;;;4.97;2.70;;;;;;;;;;5036641;28;20096;-92
2022/12/16 04:34:25;;;;;;;4.07;3.83;;;;;;;;;;5036801;28;20049;-93
